Аэропорт: Алматы. Алма-Ата

ICAO: UAAA

METAR:
2019/03/26 13:00
UAAA 261300Z 04004MPS 9999 FEW100 SCT200 15/M02 Q1016 R88/CLRD65 NOSIG
METAR:
2019/03/26 12:18
TAF TAF UAAA 261100Z 2612/2712 16003MPS 3100 BR FU FEW050 SCT100 TX20/2708Z TN05/2701Z 
      TEMPO 2613/2622 20003MPS 1200 
     FM270400 02003MPS 9999 SCT050CB BKN100 
      TEMPO 2704/2712 06004MPS